Latest Weather Observations for Hay Airport

IDN60801

Issued at 5:04 pm EDT Monday 26 January 2015 (issued every 30 minutes, with the page automatically refreshed every 10 minutes)

About weather observations | Map of weather stations | Latest weather observations for NSW | Other Formats
Station Details ID: 075019 Name: HAY AIRPORT AWS Lat: -34.54 Lon: 144.83 Height: 92.0 m
Data from the previous 72 hours. | See also: Recent months for locations in New South Wales
Date/Time
EDT
Temp
°C
App
Temp
°C
Dew
Point
Rel
Hum
%
Delta-T
°C
Wind Press
QNH
hPa
Press
MSL
hPa
Rain
since 9 am
mm
Dir
 
Spd
km/h
Gust
km/h
Spd
kts
Gust
kts
26/05:00pm 24.9 19.5 1.1 21 11.2 S 19 28 10 15 1011.5 1011.0 0.0
26/04:42pm 25.3 19.8 2.1 22 11.2 SW 20 41 11 22 1011.5 1011.0 0.0
26/04:30pm 24.9 19.9 1.1 21 11.2 WSW 17 28 9 15 1011.7 1011.2 0.0
26/04:00pm 24.9 19.5 2.4 23 10.9 S 20 32 11 17 1012.1 1011.6 0.0
26/03:30pm 24.1 18.6 1.7 23 10.6 SW 20 35 11 19 1012.3 1011.8 0.0
26/03:00pm 23.7 17.5 2.0 24 10.3 SSW 24 39 13 21 1012.7 1012.2 0.0
26/02:30pm 23.7 18.9 2.5 25 10.2 SW 17 28 9 15 1013.1 1012.6 0.0
26/02:00pm 23.4 18.6 2.8 26 9.9 S 17 30 9 16 1013.5 1013.0 0.0
26/01:30pm 22.6 17.8 2.7 27 9.5 S 17 30 9 16 1013.9 1013.4 0.0
26/01:00pm 22.5 17.4 3.1 28 9.3 SW 19 30 10 16 1014.2 1013.7 0.0
26/12:30pm 21.6 16.5 3.3 30 8.8 SSW 19 33 10 18 1014.4 1013.9 0.0
26/12:00pm 21.5 16.2 3.2 30 8.7 SW 20 32 11 17 1014.6 1014.1 0.0
26/11:30am 21.2 16.3 3.9 32 8.4 S 19 28 10 15 1014.9 1014.4 0.0
26/11:00am 20.6 15.1 3.8 33 8.1 S 22 32 12 17 1015.1 1014.6 0.0
26/10:30am 19.6 13.7 3.7 35 7.6 S 24 32 13 17 1015.2 1014.7 0.0
26/10:00am 19.3 13.3 3.5 35 7.5 S 24 32 13 17 1015.1 1014.6 0.0
26/09:30am 18.0 12.2 4.2 40 6.6 S 24 32 13 17 1015.2 1014.7 0.0
26/09:00am 17.3 11.5 4.6 43 6.0 S 24 35 13 19 1015.1 1014.6 0.0
26/08:30am 16.3 10.7 5.3 48 5.3 S 24 33 13 18 1014.9 1014.4 0.0
26/08:00am 15.4 10.2 5.3 51 4.8 S 22 33 12 18 1014.7 1014.2 0.0
26/07:30am 14.2 9.3 5.3 55 4.2 S 20 26 11 14 1014.4 1013.9 0.0
26/07:00am 12.8 8.9 5.2 60 3.5 SSW 15 19 8 10 1014.3 1013.8 0.0
26/06:30am 12.0 8.4 5.2 63 3.1 SSW 13 17 7 9 1013.9 1013.4 0.0
26/06:00am 12.5 8.9 5.0 60 3.5 S 13 17 7 9 1013.4 1012.9 0.0
26/05:30am 13.4 10.2 5.1 57 3.9 S 11 15 6 8 1013.0 1012.5 0.0
26/05:00am 13.7 10.4 4.8 55 4.1 SSE 11 15 6 8 1012.8 1012.3 0.0
26/04:30am 14.2 10.6 4.8 53 4.4 S 13 17 7 9 1012.5 1012.0 0.0
26/04:00am 14.8 10.7 4.5 50 4.8 S 15 20 8 11 1012.3 1011.8 0.0
26/03:30am 15.1 11.0 4.5 49 5.0 S 15 19 8 10 1012.1 1011.6 0.0
26/03:00am 15.5 11.3 3.9 46 5.4 S 15 19 8 10 1011.9 1011.4 0.0
26/02:30am 15.9 11.3 3.7 44 5.6 SSW 17 22 9 12 1011.9 1011.4 0.0
26/02:00am 16.6 11.5 3.3 41 6.1 SSW 19 24 10 13 1011.7 1011.2 0.0
26/01:30am 16.9 11.8 3.2 40 6.3 SW 19 24 10 13 1011.7 1011.2 0.0
26/01:00am 17.2 12.1 2.8 38 6.6 SW 19 24 10 13 1011.7 1011.2 0.0
26/12:30am 16.4 12.3 2.4 39 6.3 SW 13 17 7 9 1011.6 1011.1 0.0
26/12:00am 17.4 13.0 2.6 37 6.8 SW 15 17 8 9 1011.5 1011.0 0.0
 
Date/Time
EDT
Temp
°C
App
Temp
°C
Dew
Point
Rel
Hum
%
Delta-T
°C
Wind Press
QNH
hPa
Press
MSL
hPa
Rain
since 9 am
mm
Dir
 
Spd
km/h
Gust
km/h
Spd
kts
Gust
kts
25/11:30pm 18.3 14.2 2.2 34 7.4 SSW 13 17 7 9 1011.5 1011.0 0.0
25/11:00pm 18.7 14.3 2.5 34 7.5 SSW 15 17 8 9 1011.1 1010.7 0.0
25/10:30pm 19.7 14.9 2.6 32 8.0 SSW 17 19 9 10 1011.1 1010.7 0.0
25/10:00pm 20.6 15.4 2.4 30 8.5 SSW 19 20 10 11 1010.8 1010.4 0.0
25/09:30pm 20.9 16.0 1.7 28 8.9 SSW 17 20 9 11 1010.5 1010.1 0.0
25/09:00pm 22.2 16.6 1.3 25 9.7 SSW 20 26 11 14 1010.3 1009.9 0.0
25/08:30pm 23.0 17.2 0.2 22 10.4 SW 20 30 11 16 1010.0 1009.6 0.0
25/08:00pm 24.3 17.4 -0.1 20 11.2 SW 26 35 14 19 1009.6 1009.2 0.0
25/07:30pm 25.1 18.6 0.6 20 11.5 SSW 24 35 13 19 1009.4 1009.0 0.0
25/07:00pm 25.6 18.8 1.0 20 11.7 SW 26 35 14 19 1009.0 1008.6 0.0
25/06:30pm 26.0 18.1 1.3 20 11.8 SW 32 44 17 24 1008.8 1008.4 0.0
25/05:30pm 26.7 19.2 1.2 19 12.2 SW 30 39 16 21 1008.4 1008.0 0.0
25/05:00pm 26.5 18.0 1.0 19 12.2 WSW 35 46 19 25 1008.4 1008.0 0.0
25/04:38pm 26.3 18.9 1.6 20 11.9 SW 30 50 16 27 1008.4 1008.0 0.0
25/04:30pm 26.2 18.7 1.5 20 11.8 WSW 30 43 16 23 1008.3 1007.9 0.0
25/04:00pm 26.5 19.2 2.4 21 11.8 SW 30 44 16 24 1008.5 1008.1 0.0
25/03:43pm 26.1 19.0 3.4 23 11.3 SW 30 57 16 31 1008.3 1007.9 0.0
25/03:30pm 25.2 18.0 3.2 24 10.8 SW 30 50 16 27 1008.6 1008.2 0.0
25/03:10pm 26.0 19.3 3.9 24 11.0 SW 28 46 15 25 1008.7 1008.3 0.0
25/03:00pm 25.3 17.9 3.9 25 10.7 SW 32 43 17 23 1008.7 1008.3 0.0
25/02:30pm 25.3 18.1 5.0 27 10.3 SW 32 46 17 25 1008.5 1008.1 0.0
25/02:00pm 24.8 17.5 5.6 29 9.8 SW 33 48 18 26 1008.7 1008.3 0.0
25/01:51pm 24.8 18.1 5.6 29 9.8 SW 30 48 16 26 1008.7 1008.3 0.0
25/01:30pm 24.3 17.0 4.6 28 9.9 WSW 32 44 17 24 1008.9 1008.5 0.0
25/01:00pm 23.8 16.4 5.2 30 9.4 WSW 33 46 18 25 1009.0 1008.6 0.0
25/12:30pm 23.5 16.5 5.9 32 9.0 WSW 32 39 17 21 1009.1 1008.7 0.0
25/12:00pm 23.5 16.8 7.2 35 8.5 WSW 32 46 17 25 1009.2 1008.8 0.0
25/11:30am 22.6 16.0 7.6 38 7.8 SW 32 43 17 23 1009.2 1008.8 0.0
25/11:00am 22.2 16.1 8.3 41 7.4 SW 30 43 16 23 1009.1 1008.7 0.0
25/10:30am 21.6 15.4 9.2 45 6.6 SW 32 41 17 22 1009.0 1008.6 0.0
25/10:00am 21.3 15.5 9.5 47 6.4 SW 30 41 16 22 1009.1 1008.7 0.0
25/09:30am 20.4 14.8 10.2 52 5.5 SW 30 39 16 21 1008.9 1008.5 0.0
25/09:00am 19.9 14.8 10.6 55 5.1 SW 28 37 15 20 1008.8 1008.4 0.6
25/08:30am 19.3 14.8 11.3 60 4.4 WSW 26 35 14 19 1008.6 1008.2 0.6
25/08:00am 18.9 14.1 11.5 62 4.1 WSW 28 35 15 19 1008.3 1007.9 0.6
25/07:30am 18.3 14.5 11.1 63 3.9 WSW 22 30 12 16 1007.9 1007.5 0.6
25/07:00am 17.4 15.2 10.8 65 3.6 W 13 17 7 9 1007.5 1007.1 0.6
25/06:30am 17.3 14.5 10.0 62 3.9 WSW 15 20 8 11 1006.9 1006.5 0.6
25/06:00am 17.7 14.3 9.3 58 4.4 WSW 17 22 9 12 1006.4 1005.9 0.6
25/05:30am 17.4 14.7 8.8 57 4.5 SW 13 17 7 9 1005.9 1005.4 0.6
25/05:00am 18.4 15.3 8.7 53 5.1 SW 15 19 8 10 1005.7 1005.2 0.6
25/04:30am 18.9 15.4 8.6 51 5.4 SW 17 20 9 11 1005.6 1005.1 0.6
25/04:00am 19.6 15.4 8.3 48 5.9 SW 20 28 11 15 1005.6 1005.1 0.6
25/03:30am 20.1 15.4 7.8 45 6.4 SW 22 30 12 16 1005.6 1005.1 0.6
25/03:00am 20.6 15.5 7.6 43 6.7 SW 24 32 13 17 1005.3 1004.8 0.6
25/02:30am 21.4 15.8 7.3 40 7.3 SW 26 35 14 19 1005.2 1004.7 0.6
25/02:00am 22.0 16.5 7.4 39 7.6 SW 26 35 14 19 1005.0 1004.5 0.6
25/01:30am 22.6 18.3 8.0 39 7.7 SW 20 28 11 15 1004.7 1004.2 0.6
25/01:00am 23.8 17.4 7.0 34 8.8 SW 30 41 16 22 1004.4 1003.9 0.6
25/12:58am 23.9 17.4 6.7 33 8.9 SW 30 41 16 22 1004.3 1003.8 0.6
25/12:30am 23.5 19.0 6.3 33 8.8 WSW 19 20 10 11 1004.1 1003.6 0.6
25/12:00am 24.3 20.3 6.6 32 9.2 WSW 17 20 9 11 1004.1 1003.6 0.6
 
Date/Time
EDT
Temp
°C
App
Temp
°C
Dew
Point
Rel
Hum
%
Delta-T
°C
Wind Press
QNH
hPa
Press
MSL
hPa
Rain
since 9 am
mm
Dir
 
Spd
km/h
Gust
km/h
Spd
kts
Gust
kts
24/11:30pm 25.3 21.1 5.5 28 10.1 WSW 17 22 9 12 1003.8 1003.3 0.6
24/11:00pm 26.2 22.1 6.3 28 10.4 SW 17 20 9 11 1003.7 1003.2 0.6
24/10:30pm 27.4 22.7 6.2 26 11.1 SW 20 24 11 13 1003.6 1003.1 0.6
24/10:00pm 28.6 24.0 8.3 28 11.2 SW 22 30 12 16 1003.4 1002.9 0.6
24/09:30pm 29.5 27.6 12.9 36 9.8 WSW 15 26 8 14 1003.0 1002.5 0.6
24/09:00pm 29.4 28.6 14.0 39 9.3 W 11 13 6 7 1002.5 1002.0 0.6
24/08:30pm 30.6 28.4 13.4 35 10.3 WSW 17 20 9 11 1002.0 1001.5 0.6
24/08:00pm 31.9 28.9 12.7 31 11.5 WSW 20 28 11 15 1001.7 1001.2 0.6
24/07:30pm 32.7 29.8 12.9 30 11.9 WSW 20 28 11 15 1001.5 1001.0 0.6
24/07:00pm 33.3 30.8 13.4 30 12.1 WSW 19 24 10 13 1001.4 1000.9 0.6
24/06:30pm 33.8 31.2 13.3 29 12.4 W 19 28 10 15 1001.3 1000.8 0.6
24/06:00pm 32.9 31.0 13.0 30 12.0 SW 15 24 8 13 1001.5 1001.0 0.6
24/05:30pm 33.9 32.3 14.9 32 11.8 WNW 17 20 9 11 1001.6 1001.1 0.6
24/05:00pm 32.8 30.1 13.4 30 11.8 NW 20 32 11 17 1002.0 1001.5 0.6
24/04:30pm 32.9 32.1 15.0 34 11.1 NNW 13 26 7 14 1002.5 1002.0 0.6
24/04:00pm 32.0 31.5 15.9 38 10.1 NNE 13 20 7 11 1003.0 1002.5 0.6
24/03:30pm 30.8 31.8 16.4 42 9.0 NE 6 11 3 6 1003.6 1003.1 0.6
24/03:00pm 30.7 32.1 17.7 45 8.3 NE 7 15 4 8 1003.8 1003.3 0.6
24/02:30pm 29.7 30.9 15.0 40 9.0 W 2 7 1 4 1004.3 1003.8 0.6
24/02:00pm 28.6 30.4 15.5 45 8.1 CALM 0 7 0 4 1004.8 1004.3 0.6
24/01:30pm 27.9 30.0 16.2 49 7.3 CALM 0 6 0 3 1005.3 1004.8 0.6
24/01:00pm 26.8 27.9 15.5 50 6.9 WNW 4 9 2 5 1005.9 1005.4 0.4
24/12:30pm 25.2 26.0 16.3 57 5.5 SSW 7 11 4 6 1006.1 1005.6 0.4
24/12:00pm 24.0 24.2 16.8 64 4.5 SSE 11 13 6 7 1005.8 1005.3 0.4
24/11:30am 22.7 23.5 17.4 72 3.3 ESE 9 11 5 6 1006.1 1005.6 0.4
24/11:00am 22.2 24.6 16.9 72 3.3 CALM 0 0 0 0 1006.1 1005.6 0.4
24/10:30am 21.5 22.4 17.5 78 2.5 ESE 9 11 5 6 1005.9 1005.4 0.4
24/10:00am 20.2 20.2 17.2 83 1.8 S 13 17 7 9 1005.9 1005.4 0.4
24/09:30am 19.4 17.9 15.3 77 2.4 SW 17 22 9 12 1005.9 1005.4 0.4
24/09:00am 20.6 19.7 13.6 64 4.0 WSW 11 15 6 8 1006.4 1005.9 9.6
24/08:30am 22.9 22.0 12.5 52 5.9 SW 9 13 5 7 1006.1 1005.6 9.2
24/08:00am 22.3 20.4 13.1 56 5.3 W 15 19 8 10 1006.0 1005.5 9.2
24/07:30am 21.3 20.4 14.9 67 3.8 NW 13 17 7 9 1005.6 1005.1 9.2
24/07:00am 20.5 20.1 14.2 67 3.7 WSW 9 15 5 8 1004.9 1004.4 9.2
24/06:30am 21.0 19.7 13.7 63 4.2 SW 13 15 7 8 1004.3 1003.8 9.2
24/06:00am 21.3 18.9 12.7 58 4.9 SW 17 20 9 11 1004.2 1003.7 9.2
24/05:30am 21.6 19.6 13.8 61 4.5 WSW 17 20 9 11 1004.0 1003.5 9.2
24/05:00am 22.0 20.4 14.9 64 4.2 WSW 17 22 9 12 1004.0 1003.5 9.2
24/04:30am 22.8 22.0 15.1 62 4.6 SW 13 17 7 9 1003.7 1003.2 9.2
24/04:00am 22.9 23.6 16.2 66 4.1 SW 7 13 4 7 1003.9 1003.4 9.2
24/03:30am 23.5 23.9 16.3 64 4.4 SW 9 11 5 6 1004.2 1003.7 9.2
24/03:00am 24.1 25.1 17.8 68 4.0 W 9 11 5 6 1004.5 1004.0 9.2
24/02:30am 23.8 25.9 18.9 74 3.1 NW 6 11 3 6 1004.7 1004.2 9.2
24/02:00am 24.9 26.4 15.8 57 5.6 SSE 2 6 1 3 1004.7 1004.2 9.2
24/01:30am 25.3 26.8 16.7 59 5.3 SSE 4 7 2 4 1004.9 1004.4 9.2
24/01:00am 25.6 25.3 16.4 56 5.7 S 13 15 7 8 1004.7 1004.2 9.2
24/12:30am 26.1 25.9 15.8 53 6.3 SSW 11 15 6 8 1004.9 1004.4 9.2
24/12:00am 26.1 27.0 16.6 55 5.9 SSW 7 9 4 5 1005.0 1004.5 9.2
 
Date/Time
EDT
Temp
°C
App
Temp
°C
Dew
Point
Rel
Hum
%
Delta-T
°C
Wind Press
QNH
hPa
Press
MSL
hPa
Rain
since 9 am
mm
Dir
 
Spd
km/h
Gust
km/h
Spd
kts
Gust
kts
23/11:30pm 26.2 26.8 15.9 53 6.3 S 7 7 4 4 1005.0 1004.5 9.2
23/11:00pm 26.6 26.8 16.8 55 6.1 SSW 11 13 6 7 1004.9 1004.4 9.2
23/10:30pm 27.1 27.3 16.7 53 6.5 SW 11 15 6 8 1004.7 1004.2 9.2
23/10:00pm 28.7 27.1 14.9 43 8.4 SW 17 20 9 11 1004.3 1003.8 9.2
23/09:30pm 29.0 27.6 15.5 44 8.3 SSW 17 20 9 11 1004.1 1003.6 9.2
23/09:00pm 29.6 28.3 15.7 43 8.6 SW 17 20 9 11 1003.8 1003.3 9.2
23/08:30pm 31.0 33.8 18.0 45 8.4 CALM 0 11 0 6 1003.4 1002.9 9.2
23/08:00pm 31.0 34.5 20.3 53 7.1 NNW 2 6 1 3 1003.0 1002.5 9.2
23/07:30pm 30.1 33.0 20.6 56 6.3 NNE 6 11 3 6 1002.8 1002.3 9.2
23/07:00pm 28.3 31.4 22.1 69 4.2 ENE 9 11 5 6 1002.5 1002.0 9.2
23/06:30pm 26.8 28.0 21.5 72 3.5 NE 17 22 9 12 1002.5 1002.0 9.2
23/06:00pm 26.8 25.3 20.2 67 4.3 N 28 41 15 22 1002.9 1002.4 9.2
23/05:39pm 28.8 28.4 18.9 55 6.4 NE 19 48 10 26 1002.9 1002.4 8.8
23/05:30pm 28.3 29.5 20.6 63 5.1 ESE 15 20 8 11 1002.3 1001.8 8.8

Other Formats:

Comma delimited format used in spreadsheet applications
http://www.bom.gov.au/fwo/IDN60801/IDN60801.94702.axf

JavaScript Object Notation format (JSON) in row-major order
http://www.bom.gov.au/fwo/IDN60801/IDN60801.94702.json